Historique des stations

Station météo de Culan

Altitude de la station : 276 m







Données météorologiques pour le 17/01/2021
Date
Heure
Températures Humidité Point de rosée Vitesse
du vent
Direction Rafales Windchill Pression Pluviométrie
Cumul
Date
Heure
Températures Humidité Point de rosée Vitesse
du vent
Direction Rafales Windchill Pression Pluviométrie
Cumul
17/01/2021 14:297.4 °C77 %3.9 °C-ONO27 km/h7.2 1025 hPa4.4 mm
17/01/2021 14:147.6 °C77 %3.9 °C-NO27 km/h7.8 1025 hPa4.4 mm
17/01/2021 13:597.1 °C80 %3.9 °C-NNO27 km/h7.2 1025 hPa4.4 mm
17/01/2021 13:447.1 °C84 %4.4 °C27 km/hNNO27 km/h2.8 1025 hPa4.4 mm
17/01/2021 13:296.6 °C87 %4.4 °C6 km/hNNO27 km/h5.6 1025 hPa4.4 mm
17/01/2021 13:146.5 °C88 %4.4 °C11 km/hONO23 km/h4.4 1025 hPa4.4 mm
17/01/2021 12:596.4 °C87 %4.4 °C8 km/hNO23 km/h5.0 1025 hPa4.4 mm
17/01/2021 12:446.3 °C89 %4.4 °C19 km/hNO23 km/h2.2 1025 hPa4.4 mm
17/01/2021 12:295.9 °C90 %4.4 °C3 km/hONO21 km/h5.6 1025 hPa4.4 mm
17/01/2021 12:155.7 °C92 %4.4 °C8 km/hONO21 km/h3.3 1025 hPa4.4 mm
17/01/2021 12:005.7 °C93 %4.4 °C11 km/hNNO21 km/h2.8 1025 hPa4.4 mm
17/01/2021 11:455.6 °C95 %5.0 °C2 km/hNO21 km/h5.6 1025 hPa4.4 mm
17/01/2021 11:305.4 °C95 %4.4 °C-ONO21 km/h5.6 1025 hPa4.4 mm
17/01/2021 11:155.2 °C96 %4.4 °C5 km/hONO21 km/h4.4 1025 hPa4.4 mm
17/01/2021 11:004.6 °C95 %3.9 °C8 km/hNO21 km/h2.2 1024 hPa4.4 mm
17/01/2021 10:454.6 °C96 %3.9 °C-NO21 km/h4.4 1024 hPa4.4 mm
17/01/2021 10:304.5 °C96 %3.9 °C3 km/hONO19 km/h3.3 1024 hPa4.2 mm
17/01/2021 10:154.6 °C96 %3.9 °C5 km/hONO19 km/h3.3 1024 hPa4 mm
17/01/2021 09:594.7 °C96 %3.9 °C6 km/hONO19 km/h2.8 1023 hPa3.6 mm
17/01/2021 09:444.6 °C96 %3.9 °C8 km/hNO19 km/h2.2 1023 hPa3.6 mm
17/01/2021 09:294.5 °C96 %3.9 °C3 km/hNO19 km/h3.3 1023 hPa3.6 mm
17/01/2021 09:144.4 °C96 %3.9 °C10 km/hONO19 km/h2.2 1023 hPa3.6 mm
17/01/2021 08:594.4 °C96 %3.9 °C3 km/hONO19 km/h3.3 1023 hPa3.6 mm
17/01/2021 08:444.4 °C96 %3.9 °C6 km/hONO19 km/h2.8 1023 hPa3.6 mm
17/01/2021 08:294.4 °C96 %3.9 °C-ONO19 km/h4.4 1022 hPa3.6 mm
17/01/2021 08:144.6 °C96 %3.9 °C6 km/hO19 km/h2.8 1022 hPa3.6 mm
17/01/2021 07:594.6 °C96 %3.9 °C2 km/hONO19 km/h3.9 1022 hPa3.4 mm
17/01/2021 07:444.8 °C96 %4.4 °C13 km/hNO19 km/h1.7 1022 hPa3.4 mm
17/01/2021 07:294.8 °C96 %4.4 °C-ONO19 km/h5.0 1022 hPa3.4 mm
17/01/2021 07:144.8 °C96 %4.4 °C5 km/hO19 km/h4.4 1022 hPa3.4 mm
17/01/2021 06:594.9 °C96 %4.4 °C-ONO19 km/h5.0 1021 hPa3.4 mm
17/01/2021 06:444.9 °C96 %4.4 °C5 km/hONO19 km/h4.4 1021 hPa3.4 mm
17/01/2021 06:295.0 °C96 %4.4 °C5 km/hONO19 km/h4.4 1021 hPa3.4 mm
17/01/2021 06:145.1 °C96 %4.4 °C5 km/hONO19 km/h4.4 1021 hPa3.4 mm
17/01/2021 05:595.1 °C96 %4.4 °C10 km/hONO19 km/h2.8 1021 hPa3.4 mm
17/01/2021 05:445.1 °C96 %4.4 °C8 km/hONO19 km/h2.8 1021 hPa3.4 mm
17/01/2021 05:295.0 °C96 %4.4 °C-O19 km/h5.0 1021 hPa3.4 mm
17/01/2021 05:145.1 °C96 %4.4 °C3 km/hONO19 km/h4.4 1021 hPa3.4 mm
17/01/2021 04:595.1 °C96 %4.4 °C10 km/hO19 km/h2.8 1021 hPa3.4 mm
17/01/2021 04:445.2 °C96 %4.4 °C-ONO19 km/h5.0 1021 hPa3.4 mm
17/01/2021 04:295.2 °C96 %4.4 °C-ONO19 km/h5.0 1021 hPa3.4 mm
17/01/2021 04:145.1 °C96 %4.4 °C-ONO19 km/h5.0 1021 hPa3.4 mm
17/01/2021 03:595.2 °C96 %4.4 °C-ONO19 km/h5.0 1021 hPa3.4 mm
17/01/2021 03:455.3 °C96 %5.0 °C-ONO19 km/h5.6 1021 hPa3.4 mm
17/01/2021 03:305.4 °C96 %5.0 °C-ONO19 km/h5.6 1021 hPa3.4 mm
17/01/2021 03:155.3 °C96 %5.0 °C13 km/hNO19 km/h2.8 1021 hPa3.4 mm
17/01/2021 03:005.4 °C96 %5.0 °C-O19 km/h5.6 1021 hPa3.4 mm
17/01/2021 02:455.4 °C96 %5.0 °C-NO19 km/h5.6 1021 hPa3.4 mm
17/01/2021 02:305.4 °C96 %5.0 °C-ONO19 km/h5.6 1021 hPa3.4 mm
17/01/2021 02:155.4 °C96 %5.0 °C3 km/hONO19 km/h5.0 1021 hPa3.2 mm
17/01/2021 02:005.4 °C95 %5.0 °C3 km/hO19 km/h5.0 1020 hPa3 mm
17/01/2021 01:455.4 °C96 %5.0 °C-ONO19 km/h5.6 1020 hPa2.8 mm
17/01/2021 01:305.4 °C96 %5.0 °C-O19 km/h5.6 1020 hPa2.6 mm
17/01/2021 01:155.4 °C95 %4.4 °C3 km/hO19 km/h5.0 1020 hPa2.6 mm
17/01/2021 01:005.4 °C95 %4.4 °C-ONO19 km/h5.6 1020 hPa2.4 mm
17/01/2021 00:455.5 °C95 %5.0 °C8 km/hO19 km/h3.3 1020 hPa2.2 mm
17/01/2021 00:305.6 °C95 %5.0 °C8 km/hNO19 km/h3.3 1021 hPa1.6 mm
17/01/2021 00:155.6 °C95 %5.0 °C5 km/hONO16 km/h5.0 1020 hPa0.8 mm
17/01/2021 00:005.5 °C95 %5.0 °C5 km/hO8 km/h5.0 1020 hPa-


Minima :

Température : 4.4 °C
Humidité : 77 %
Point de rosée : 3.9 °C
Vent moyen : 2 km/h
Windchill : 1.7
Pression atm. : 1020 hPa
Maxima :

Température : 7.6 °C
Humidité : 96 %
Point de rosée : 5.0 °C
Vent moyen : 27 km/h
Windchill : 7.8
Pression atm. : 1025 hPa
Rafales max : 27 km/h
Cumul de pluie sur 24H : 4.4 mm

Culan est une commune du département Cher (18).
La station météorologique du réseau de l'association la plus proche de Culan est celle de Beddes



Icône Facebook Association Météo Centre Icône Twitter Association Météo Centre Icône Chaîne Youtube Association Météo Centre Icône contact Association Météo Centre Icône Insta Association Météo Centre